createdAt,value
2019-02-26T00:00:14.828Z,0.00
2019-02-26T00:01:16.368Z,0.00
2019-02-26T00:02:17.075Z,0.00
2019-02-26T00:03:13.956Z,0.00
2019-02-26T00:04:13.946Z,0.00
2019-02-26T00:05:17.379Z,0.00
2019-02-26T00:06:16.094Z,0.00
2019-02-26T00:07:16.247Z,0.00
2019-02-26T00:08:14.601Z,0.00
2019-02-26T00:09:18.161Z,0.00
2019-02-26T00:10:13.883Z,0.00
2019-02-26T00:11:13.872Z,0.00
2019-02-26T00:12:13.860Z,0.00
2019-02-26T00:13:13.852Z,0.00
2019-02-26T00:14:17.416Z,0.00
2019-02-26T00:15:13.831Z,0.00
2019-02-26T00:16:15.826Z,0.00
2019-02-26T00:17:15.306Z,0.00
2019-02-26T00:18:14.421Z,0.00
2019-02-26T00:19:14.375Z,0.00
2019-02-26T00:20:17.086Z,0.00
2019-02-26T00:21:13.768Z,0.00
2019-02-26T00:22:15.542Z,0.00
2019-02-26T00:23:13.747Z,0.00
2019-02-26T00:24:14.697Z,0.00
2019-02-26T00:25:15.420Z,0.00
2019-02-26T00:26:17.105Z,0.00
2019-02-26T00:27:13.707Z,0.00
2019-02-26T00:28:15.523Z,0.00
2019-02-26T00:29:13.683Z,0.00
2019-02-26T00:30:16.136Z,0.00
2019-02-26T00:31:13.665Z,0.00
2019-02-26T00:32:14.398Z,0.00
2019-02-26T00:33:13.642Z,0.00
2019-02-26T00:34:15.974Z,0.00
2019-02-26T00:35:13.625Z,0.00
2019-02-26T00:36:15.316Z,0.00
2019-02-26T00:37:13.604Z,0.00
2019-02-26T00:38:15.556Z,0.00
2019-02-26T00:39:13.581Z,0.00
2019-02-26T00:40:14.608Z,0.00
2019-02-26T00:41:13.559Z,0.00
2019-02-26T00:42:13.546Z,0.00
2019-02-26T00:43:13.537Z,0.00
2019-02-26T00:44:13.540Z,0.00
2019-02-26T00:45:13.517Z,0.00
2019-02-26T00:46:13.506Z,0.00
2019-02-26T00:47:13.496Z,0.00
2019-02-26T00:48:13.485Z,0.00
2019-02-26T00:49:13.481Z,0.00
2019-02-26T00:50:14.258Z,0.00
2019-02-26T00:51:13.450Z,0.00
2019-02-26T00:52:15.571Z,0.00
2019-02-26T00:53:17.097Z,0.00
2019-02-26T00:54:14.421Z,0.00
2019-02-26T00:55:13.412Z,0.00
2019-02-26T00:56:13.417Z,0.00
2019-02-26T00:57:13.951Z,0.00
2019-02-26T00:58:13.378Z,0.00
2019-02-26T00:59:13.366Z,0.00
2019-02-26T01:00:13.355Z,0.00
2019-02-26T01:01:15.294Z,0.00
2019-02-26T01:02:13.349Z,0.00
2019-02-26T01:03:15.286Z,0.00
2019-02-26T01:04:13.316Z,0.00
2019-02-26T01:05:15.522Z,0.00
2019-02-26T01:06:13.291Z,0.00
2019-02-26T01:07:13.283Z,0.00
2019-02-26T01:08:15.192Z,0.00
2019-02-26T01:09:13.259Z,0.00
2019-02-26T01:10:13.982Z,0.00
2019-02-26T01:11:13.238Z,0.00
2019-02-26T01:12:13.817Z,0.00
2019-02-26T01:13:22.315Z,0.00
2019-02-26T01:14:13.597Z,0.00
2019-02-26T01:15:14.074Z,0.00
2019-02-26T01:16:13.187Z,0.00
2019-02-26T01:17:14.813Z,0.00
2019-02-26T01:18:13.164Z,0.00
2019-02-26T01:19:15.201Z,0.00
2019-02-26T01:20:13.142Z,0.00
2019-02-26T01:21:13.135Z,0.00
2019-02-26T01:22:13.122Z,0.00
2019-02-26T01:23:13.109Z,0.00
2019-02-26T01:24:13.100Z,0.00
2019-02-26T01:25:15.191Z,0.00
2019-02-26T01:26:13.076Z,0.00
2019-02-26T01:27:13.068Z,0.00
2019-02-26T01:28:16.056Z,0.00
2019-02-26T01:29:16.021Z,0.00
2019-02-26T01:30:13.039Z,0.00
2019-02-26T01:31:13.040Z,0.00
2019-02-26T01:32:13.805Z,0.00
2019-02-26T01:33:13.012Z,0.00
2019-02-26T01:34:14.090Z,0.00
2019-02-26T01:35:13.059Z,0.00
2019-02-26T01:36:13.986Z,0.00
2019-02-26T01:37:13.010Z,0.00
2019-02-26T01:38:14.380Z,0.00
2019-02-26T01:39:13.882Z,0.00
2019-02-26T01:40:15.619Z,0.00
2019-02-26T01:41:15.474Z,0.00
2019-02-26T01:42:13.378Z,0.00
2019-02-26T01:43:13.008Z,0.00
2019-02-26T01:44:12.885Z,0.00
2019-02-26T01:45:12.892Z,0.00
2019-02-26T01:46:14.522Z,0.00
2019-02-26T01:47:12.849Z,0.00
2019-02-26T01:48:16.731Z,0.00
2019-02-26T01:49:13.943Z,0.00
2019-02-26T01:50:13.511Z,0.00
2019-02-26T01:51:12.817Z,0.00
2019-02-26T01:52:14.967Z,0.00
2019-02-26T01:53:14.503Z,0.00
2019-02-26T01:54:14.404Z,0.00
2019-02-26T01:55:12.786Z,0.00
2019-02-26T01:56:12.758Z,0.00
2019-02-26T01:57:12.745Z,0.00
2019-02-26T01:58:15.784Z,0.00
2019-02-26T01:59:12.726Z,0.00
2019-02-26T02:00:12.718Z,0.00
2019-02-26T02:01:14.289Z,0.00
2019-02-26T02:02:17.274Z,0.00
2019-02-26T02:03:13.677Z,0.00
2019-02-26T02:04:13.238Z,0.00
2019-02-26T02:05:12.665Z,0.00
2019-02-26T02:06:14.189Z,0.00
2019-02-26T02:07:12.668Z,0.00
2019-02-26T02:08:13.265Z,0.00
2019-02-26T02:09:14.129Z,0.00
2019-02-26T02:10:12.606Z,0.00
2019-02-26T02:11:12.600Z,0.00
2019-02-26T02:12:12.591Z,0.00
2019-02-26T02:13:12.598Z,0.00
2019-02-26T02:14:13.148Z,0.00
2019-02-26T02:15:14.917Z,0.00
2019-02-26T02:16:12.546Z,0.00
2019-02-26T02:17:13.619Z,0.00
2019-02-26T02:18:12.523Z,0.00
2019-02-26T02:19:15.520Z,0.00
2019-02-26T02:20:13.102Z,0.00
2019-02-26T02:21:12.494Z,0.00
2019-02-26T02:22:14.545Z,0.00
2019-02-26T02:23:12.472Z,0.00
2019-02-26T02:24:13.283Z,0.00
2019-02-26T02:25:12.492Z,0.00
2019-02-26T02:26:13.889Z,0.00
2019-02-26T02:27:12.609Z,0.00
2019-02-26T02:28:12.420Z,0.00
2019-02-26T02:29:12.882Z,0.00
2019-02-26T02:30:18.579Z,0.00
2019-02-26T02:31:13.486Z,0.00
2019-02-26T02:32:12.376Z,0.00
2019-02-26T02:33:17.203Z,0.00
2019-02-26T02:34:13.362Z,0.00
2019-02-26T02:35:13.418Z,0.00
2019-02-26T02:36:14.776Z,0.00
2019-02-26T02:37:12.431Z,0.00
2019-02-26T02:38:12.317Z,0.00
2019-02-26T02:39:15.449Z,0.00
2019-02-26T02:40:12.295Z,0.00
2019-02-26T02:41:12.283Z,0.00
2019-02-26T02:42:14.112Z,0.00
2019-02-26T02:43:13.226Z,0.00
2019-02-26T02:44:14.740Z,0.00
2019-02-26T02:45:16.115Z,0.00
2019-02-26T02:46:12.227Z,0.00
2019-02-26T02:47:12.215Z,0.00
2019-02-26T02:48:14.097Z,0.00
2019-02-26T02:49:13.270Z,0.00
2019-02-26T02:50:14.824Z,0.00
2019-02-26T02:51:13.809Z,0.00
2019-02-26T02:52:12.202Z,0.00
2019-02-26T02:53:12.163Z,0.00
2019-02-26T02:54:15.319Z,0.00
2019-02-26T02:55:15.565Z,0.00
2019-02-26T02:56:12.923Z,0.00
2019-02-26T02:57:12.116Z,0.00
2019-02-26T02:58:13.088Z,0.00
2019-02-26T02:59:14.049Z,0.00
2019-02-26T03:00:12.082Z,0.00
2019-02-26T03:01:13.869Z,0.00
2019-02-26T03:02:14.186Z,0.00
2019-02-26T03:03:12.047Z,0.00
2019-02-26T03:04:14.758Z,0.00
2019-02-26T03:05:13.026Z,0.00
2019-02-26T03:06:12.378Z,0.00
2019-02-26T03:07:12.023Z,0.00
2019-02-26T03:08:13.971Z,0.00
2019-02-26T03:09:14.495Z,0.00
2019-02-26T03:10:12.114Z,0.00
2019-02-26T03:11:11.965Z,0.00
2019-02-26T03:12:11.951Z,0.00
2019-02-26T03:13:11.964Z,0.00
2019-02-26T03:14:13.975Z,0.00
2019-02-26T03:15:11.920Z,0.00
2019-02-26T03:16:13.524Z,0.00
2019-02-26T03:17:14.716Z,0.00
2019-02-26T03:18:14.861Z,0.00
2019-02-26T03:19:12.599Z,0.00
2019-02-26T03:20:11.868Z,0.00
2019-02-26T03:21:11.860Z,0.00
2019-02-26T03:22:12.884Z,0.00
2019-02-26T03:23:15.792Z,0.00
2019-02-26T03:24:12.838Z,0.00
2019-02-26T03:25:11.822Z,0.00
2019-02-26T03:26:14.687Z,0.00
2019-02-26T03:27:11.792Z,0.00
2019-02-26T03:28:11.791Z,0.00
2019-02-26T03:29:11.773Z,0.00
2019-02-26T03:30:20.679Z,0.00
2019-02-26T03:31:12.828Z,0.00
2019-02-26T03:32:11.743Z,0.00
2019-02-26T03:33:11.735Z,0.00
2019-02-26T03:34:18.854Z,0.00
2019-02-26T03:35:13.327Z,0.00
2019-02-26T03:36:13.902Z,0.00
2019-02-26T03:37:11.690Z,0.00
2019-02-26T03:38:11.685Z,0.00
2019-02-26T03:39:11.668Z,0.00
2019-02-26T03:40:11.680Z,0.00
2019-02-26T03:41:11.678Z,0.00
2019-02-26T03:42:14.108Z,0.00
2019-02-26T03:43:13.232Z,0.00
2019-02-26T03:44:11.612Z,0.00
2019-02-26T03:45:11.598Z,0.00
2019-02-26T03:46:11.593Z,0.00
2019-02-26T03:47:11.646Z,0.00
2019-02-26T03:48:11.569Z,0.00
2019-02-26T03:49:11.563Z,0.00
2019-02-26T03:50:11.551Z,0.00
2019-02-26T03:51:11.535Z,0.00
2019-02-26T03:52:15.351Z,0.00
2019-02-26T03:53:11.564Z,0.00
2019-02-26T03:54:11.505Z,0.00
2019-02-26T03:55:12.177Z,0.00
2019-02-26T03:56:14.318Z,0.00
2019-02-26T03:57:14.118Z,0.00
2019-02-26T03:58:11.470Z,0.00
2019-02-26T03:59:11.834Z,0.00
2019-02-26T04:00:14.106Z,0.00
2019-02-26T04:01:13.639Z,0.00
2019-02-26T04:02:12.596Z,0.00
2019-02-26T04:03:12.461Z,0.00
2019-02-26T04:04:11.400Z,0.00
2019-02-26T04:05:11.493Z,0.00
2019-02-26T04:06:12.152Z,0.00
2019-02-26T04:07:11.371Z,0.00
2019-02-26T04:08:11.361Z,0.00
2019-02-26T04:09:13.696Z,0.00
2019-02-26T04:10:11.336Z,0.00
2019-02-26T04:11:11.381Z,0.00
2019-02-26T04:12:13.588Z,0.00
2019-02-26T04:13:11.311Z,0.00
2019-02-26T04:14:12.646Z,0.00
2019-02-26T04:15:11.288Z,0.00
2019-02-26T04:16:11.272Z,0.00
2019-02-26T04:17:11.277Z,0.00
2019-02-26T04:18:11.260Z,0.00
2019-02-26T04:19:11.238Z,0.00
2019-02-26T04:20:11.230Z,0.00
2019-02-26T04:21:12.211Z,0.00
2019-02-26T04:22:13.133Z,0.00
2019-02-26T04:23:13.306Z,0.00
2019-02-26T04:24:11.454Z,0.00
2019-02-26T04:25:11.182Z,0.00
2019-02-26T04:26:11.166Z,0.00
2019-02-26T04:27:11.157Z,0.00
2019-02-26T04:28:11.314Z,0.00
2019-02-26T04:29:11.243Z,0.00
2019-02-26T04:30:13.445Z,0.00
2019-02-26T04:31:11.113Z,0.00
2019-02-26T04:32:12.199Z,0.00
2019-02-26T04:33:11.626Z,0.00
2019-02-26T04:34:11.086Z,0.00
2019-02-26T04:35:11.094Z,0.00
2019-02-26T04:36:11.739Z,0.00
2019-02-26T04:37:12.902Z,0.00
2019-02-26T04:38:11.041Z,0.00
2019-02-26T04:39:13.654Z,0.00
2019-02-26T04:40:13.925Z,0.00
2019-02-26T04:41:13.381Z,0.00
2019-02-26T04:42:12.030Z,0.00
2019-02-26T04:43:12.875Z,0.00
2019-02-26T04:44:10.979Z,0.00
2019-02-26T04:45:10.969Z,0.00
2019-02-26T04:46:13.433Z,0.00
2019-02-26T04:47:11.053Z,0.00
2019-02-26T04:48:14.731Z,0.00
2019-02-26T04:49:11.925Z,0.00
2019-02-26T04:50:10.918Z,0.00
2019-02-26T04:51:10.907Z,0.00
2019-02-26T04:52:14.199Z,0.00
2019-02-26T04:53:11.902Z,0.00
2019-02-26T04:54:10.879Z,0.00
2019-02-26T04:55:10.869Z,0.00
2019-02-26T04:56:12.793Z,0.00
2019-02-26T04:57:10.844Z,0.00
2019-02-26T04:58:12.486Z,0.00
2019-02-26T04:59:12.335Z,0.00
2019-02-26T05:00:10.958Z,0.00
2019-02-26T05:01:12.912Z,0.00
2019-02-26T05:02:10.807Z,0.00
2019-02-26T05:03:14.054Z,0.00
2019-02-26T05:04:10.776Z,0.00
2019-02-26T05:05:10.800Z,0.00
2019-02-26T05:06:10.988Z,0.00
2019-02-26T05:07:13.458Z,0.00
2019-02-26T05:08:12.858Z,0.00
2019-02-26T05:09:10.735Z,0.00
2019-02-26T05:10:10.708Z,0.00
2019-02-26T05:11:14.848Z,0.00
2019-02-26T05:12:11.697Z,0.00
2019-02-26T05:13:10.690Z,0.00
2019-02-26T05:14:11.747Z,0.00
2019-02-26T05:15:13.903Z,0.00
2019-02-26T05:16:11.664Z,0.00
2019-02-26T05:17:10.647Z,0.00
2019-02-26T05:18:10.627Z,0.00
2019-02-26T05:19:13.583Z,0.00
2019-02-26T05:20:15.122Z,0.00
2019-02-26T05:21:12.675Z,0.00
2019-02-26T05:22:10.610Z,0.00
2019-02-26T05:23:10.581Z,0.00
2019-02-26T05:24:14.565Z,0.00
2019-02-26T05:25:14.039Z,0.00
2019-02-26T05:26:14.978Z,0.00
2019-02-26T05:27:12.300Z,0.00
2019-02-26T05:28:14.043Z,0.00
2019-02-26T05:29:10.514Z,0.00
2019-02-26T05:30:13.028Z,0.00
2019-02-26T05:31:12.461Z,0.00
2019-02-26T05:32:10.486Z,0.00
2019-02-26T05:33:10.494Z,0.00
2019-02-26T05:34:12.415Z,0.00
2019-02-26T05:35:11.611Z,0.00
2019-02-26T05:36:12.085Z,0.00
2019-02-26T05:37:11.011Z,0.00
2019-02-26T05:38:10.423Z,0.00
2019-02-26T05:39:10.435Z,0.00
2019-02-26T05:40:12.843Z,0.00
2019-02-26T05:41:10.391Z,0.00
2019-02-26T05:42:10.387Z,0.00
2019-02-26T05:43:10.375Z,0.00
2019-02-26T05:44:10.709Z,0.00
2019-02-26T05:45:10.352Z,0.00
2019-02-26T05:46:10.359Z,0.00
2019-02-26T05:47:10.328Z,4.00
2019-02-26T05:48:12.494Z,4.00
2019-02-26T05:49:13.413Z,0.00
2019-02-26T05:50:16.334Z,4.00
2019-02-26T05:51:11.582Z,8.00
2019-02-26T05:52:10.275Z,4.00
2019-02-26T05:53:11.419Z,8.00
2019-02-26T05:54:12.272Z,8.00
2019-02-26T05:55:13.958Z,12.00
2019-02-26T05:56:11.699Z,16.00
2019-02-26T05:57:25.459Z,16.00
2019-02-26T05:58:13.469Z,20.00
2019-02-26T05:59:12.482Z,24.00
2019-02-26T06:00:13.189Z,32.00
2019-02-26T06:01:10.185Z,40.00
2019-02-26T06:02:10.847Z,48.00
2019-02-26T06:03:12.285Z,56.00
2019-02-26T06:04:12.333Z,64.00
2019-02-26T06:05:11.895Z,76.00
2019-02-26T06:06:10.133Z,88.00
2019-02-26T06:07:10.124Z,100.00
2019-02-26T06:08:10.114Z,116.00
2019-02-26T06:09:10.124Z,132.00
2019-02-26T06:10:10.096Z,152.00
2019-02-26T06:11:10.082Z,172.00
2019-02-26T06:12:10.073Z,188.00
2019-02-26T06:13:12.868Z,212.00
2019-02-26T06:14:12.729Z,236.00
2019-02-26T06:15:10.093Z,268.00
2019-02-26T06:16:10.030Z,292.00
2019-02-26T06:17:12.546Z,328.00
2019-02-26T06:18:10.013Z,360.00
2019-02-26T06:19:11.008Z,392.00
2019-02-26T06:20:11.044Z,432.00
2019-02-26T06:21:09.995Z,468.00
2019-02-26T06:22:14.465Z,508.00
2019-02-26T06:23:10.960Z,552.00
2019-02-26T06:24:09.948Z,596.00
2019-02-26T06:25:17.638Z,640.00
2019-02-26T06:26:14.890Z,688.00
2019-02-26T06:27:13.210Z,736.00
2019-02-26T06:28:12.580Z,784.00
2019-02-26T06:29:09.899Z,832.00
2019-02-26T06:30:12.255Z,876.00
2019-02-26T06:31:11.752Z,920.00
2019-02-26T06:32:11.882Z,968.00
2019-02-26T06:33:12.170Z,1024.00
2019-02-26T06:34:11.860Z,1076.00
2019-02-26T06:35:11.067Z,1128.00
2019-02-26T06:36:09.831Z,1188.00
2019-02-26T06:37:11.602Z,1248.00
2019-02-26T06:38:11.652Z,1312.00
2019-02-26T06:39:09.792Z,1376.00
2019-02-26T06:40:09.783Z,1444.00
2019-02-26T06:41:09.780Z,1512.00
2019-02-26T06:42:11.965Z,1584.00
2019-02-26T06:43:09.751Z,1652.00
2019-02-26T06:44:09.765Z,1724.00
2019-02-26T06:45:10.986Z,1796.00
2019-02-26T06:46:11.747Z,1872.00
2019-02-26T06:47:09.710Z,1952.00
2019-02-26T06:48:12.588Z,2032.00
2019-02-26T06:49:10.829Z,2096.00
2019-02-26T06:50:11.100Z,2176.00
2019-02-26T06:51:09.671Z,2256.00
2019-02-26T06:52:10.824Z,2348.00
2019-02-26T06:53:11.160Z,2460.00
2019-02-26T06:54:09.639Z,2616.00
2019-02-26T06:55:09.645Z,2824.00
2019-02-26T06:56:09.632Z,3180.00
2019-02-26T06:57:09.607Z,4020.00
2019-02-26T06:58:09.597Z,5176.00
2019-02-26T06:59:10.301Z,6480.00
2019-02-26T07:00:09.575Z,7472.00
2019-02-26T07:01:11.920Z,7460.00
2019-02-26T07:02:11.030Z,6784.00
2019-02-26T07:03:09.540Z,6480.00
2019-02-26T07:04:12.185Z,6516.00
2019-02-26T07:05:09.530Z,6876.00
2019-02-26T07:06:09.519Z,6624.00
2019-02-26T07:07:13.778Z,6788.00
2019-02-26T07:08:09.491Z,7148.00
2019-02-26T07:09:10.976Z,7780.00
2019-02-26T07:10:09.473Z,7416.00
2019-02-26T07:11:09.466Z,6920.00
2019-02-26T07:12:09.447Z,6832.00
2019-02-26T07:14:18.323Z,6936.00
2019-02-26T07:15:18.282Z,7088.00
2019-02-26T07:16:20.732Z,6596.00
2019-02-26T07:17:19.556Z,6988.00
2019-02-26T07:18:19.669Z,7264.00
2019-02-26T07:19:18.240Z,7652.00
2019-02-26T07:20:18.262Z,8156.00
2019-02-26T07:21:18.226Z,8596.00
2019-02-26T07:22:18.428Z,8288.00
2019-02-26T07:23:18.187Z,8092.00
2019-02-26T07:24:19.958Z,8384.00
2019-02-26T07:25:18.707Z,8668.00
2019-02-26T07:26:18.430Z,8412.00
2019-02-26T07:27:18.151Z,9000.00
2019-02-26T07:28:19.657Z,9472.00
2019-02-26T07:29:18.139Z,9632.00
2019-02-26T07:30:18.156Z,9944.00
2019-02-26T07:31:18.104Z,10828.00
2019-02-26T07:32:19.711Z,10232.00
2019-02-26T07:33:18.087Z,9232.00
2019-02-26T07:34:18.327Z,9188.00
2019-02-26T07:35:18.072Z,8700.00
2019-02-26T07:36:18.424Z,10384.00
2019-02-26T07:37:18.046Z,10300.00
2019-02-26T07:38:20.476Z,9412.00
2019-02-26T07:39:20.120Z,9504.00
2019-02-26T07:40:18.754Z,9908.00
2019-02-26T07:41:18.843Z,9472.00
2019-02-26T07:42:18.790Z,9292.00
2019-02-26T07:43:20.058Z,10220.00
2019-02-26T07:44:18.868Z,12000.00
2019-02-26T07:45:21.929Z,13620.00
2019-02-26T07:46:19.352Z,13148.00
2019-02-26T07:47:17.931Z,14592.00
2019-02-26T07:48:21.103Z,16224.00
2019-02-26T07:49:19.883Z,15456.00
2019-02-26T07:50:17.935Z,16192.00
2019-02-26T07:51:17.896Z,15552.00
2019-02-26T07:52:17.877Z,15424.00
2019-02-26T07:53:19.800Z,15680.00
2019-02-26T07:54:17.859Z,13944.00
2019-02-26T07:55:17.845Z,13328.00
2019-02-26T07:56:17.855Z,19232.00
2019-02-26T07:57:18.087Z,20416.00
2019-02-26T07:58:18.035Z,18400.00
2019-02-26T07:59:27.287Z,16832.00
2019-02-26T08:00:18.833Z,17536.00
2019-02-26T08:01:17.808Z,16448.00
2019-02-26T08:02:17.802Z,16640.00
2019-02-26T08:03:19.426Z,16736.00
2019-02-26T08:04:18.408Z,16320.00
2019-02-26T08:05:19.269Z,16128.00
2019-02-26T08:06:17.741Z,14880.00
2019-02-26T08:07:19.157Z,15232.00
2019-02-26T08:08:19.243Z,12960.00
2019-02-26T08:09:19.415Z,14568.00
2019-02-26T08:10:19.643Z,16096.00
2019-02-26T08:11:17.668Z,12808.00
2019-02-26T08:12:17.677Z,12240.00
2019-02-26T08:13:17.659Z,13188.00
2019-02-26T08:14:18.484Z,13172.00
2019-02-26T08:15:17.624Z,13904.00
2019-02-26T08:16:18.345Z,16480.00
2019-02-26T08:17:17.615Z,16992.00
2019-02-26T08:18:17.592Z,17056.00
2019-02-26T08:19:17.602Z,17760.00
2019-02-26T08:20:17.621Z,17248.00
2019-02-26T08:21:18.186Z,14780.00
2019-02-26T08:22:17.567Z,15552.00
2019-02-26T08:23:19.327Z,16800.00
2019-02-26T08:24:19.489Z,18432.00
2019-02-26T08:25:17.516Z,19232.00
2019-02-26T08:26:19.798Z,24512.00
2019-02-26T08:27:17.538Z,27520.00
2019-02-26T08:28:18.542Z,23424.00
2019-02-26T08:29:17.499Z,22976.00
2019-02-26T08:30:20.624Z,23264.00
2019-02-26T08:31:18.504Z,20448.00
2019-02-26T08:32:18.830Z,22368.00
2019-02-26T08:33:17.439Z,26176.00
2019-02-26T08:34:17.437Z,27840.00
2019-02-26T08:35:18.799Z,28224.00
2019-02-26T08:36:17.415Z,24352.00
2019-02-26T08:37:17.384Z,20864.00
2019-02-26T08:38:17.390Z,16896.00
2019-02-26T08:39:17.367Z,14704.00
2019-02-26T08:40:17.374Z,17472.00
2019-02-26T08:41:17.348Z,16544.00
2019-02-26T08:42:17.329Z,20960.00
2019-02-26T08:43:17.336Z,28512.00
2019-02-26T08:44:17.425Z,29408.00
2019-02-26T08:45:17.793Z,30304.00
2019-02-26T08:46:18.936Z,31648.00
2019-02-26T08:47:19.150Z,31616.00
2019-02-26T08:48:19.355Z,26144.00
2019-02-26T08:49:18.063Z,21568.00
2019-02-26T08:50:17.757Z,17728.00
2019-02-26T08:51:18.980Z,16992.00
2019-02-26T08:52:19.349Z,18048.00
2019-02-26T08:53:17.243Z,16576.00
2019-02-26T08:54:20.987Z,16032.00
2019-02-26T08:55:21.357Z,18464.00
2019-02-26T08:56:18.904Z,21824.00
2019-02-26T08:57:17.172Z,24384.00
2019-02-26T08:58:17.219Z,26368.00
2019-02-26T08:59:17.847Z,23360.00
2019-02-26T09:00:17.477Z,18976.00
2019-02-26T09:01:17.155Z,17952.00
2019-02-26T09:02:17.129Z,17760.00
2019-02-26T09:03:17.819Z,18688.00
2019-02-26T09:04:19.181Z,23776.00
2019-02-26T09:05:17.093Z,27680.00
2019-02-26T09:06:17.111Z,25888.00
2019-02-26T09:07:18.940Z,25888.00
2019-02-26T09:08:18.111Z,19808.00
2019-02-26T09:09:17.123Z,17792.00
2019-02-26T09:10:17.853Z,17568.00
2019-02-26T09:11:17.042Z,17184.00
2019-02-26T09:12:17.502Z,18624.00
2019-02-26T09:13:18.670Z,18624.00
2019-02-26T09:14:16.986Z,23168.00
2019-02-26T09:15:16.979Z,31552.00
2019-02-26T09:16:16.969Z,34560.00
2019-02-26T09:17:20.860Z,36640.00
2019-02-26T09:18:20.271Z,38144.00
2019-02-26T09:19:16.943Z,40768.00
2019-02-26T09:20:16.921Z,42112.00
2019-02-26T09:21:18.106Z,32128.00
2019-02-26T09:22:19.316Z,35072.00
2019-02-26T09:23:20.852Z,41696.00
2019-02-26T09:24:16.918Z,43264.00
2019-02-26T09:25:16.867Z,43712.00
2019-02-26T09:26:16.883Z,45760.00
2019-02-26T09:27:16.876Z,43936.00
2019-02-26T09:28:16.834Z,43488.00
2019-02-26T09:29:17.316Z,44928.00
2019-02-26T09:30:16.845Z,45184.00
2019-02-26T09:31:16.802Z,41632.00
2019-02-26T09:32:18.267Z,41312.00
2019-02-26T09:33:16.783Z,49440.00
2019-02-26T09:34:16.774Z,50272.00
2019-02-26T09:35:19.141Z,45376.00
2019-02-26T09:36:20.515Z,41856.00
2019-02-26T09:37:16.741Z,40224.00
2019-02-26T09:38:17.668Z,40192.00
2019-02-26T09:39:16.716Z,45664.00
2019-02-26T09:40:17.856Z,42176.00
2019-02-26T09:41:18.883Z,50240.00
2019-02-26T09:42:16.735Z,52864.00
2019-02-26T09:43:17.279Z,53632.00
2019-02-26T09:44:16.665Z,53344.00
2019-02-26T09:45:17.895Z,53824.00
2019-02-26T09:46:18.933Z,52064.00
2019-02-26T09:47:16.625Z,54240.00
2019-02-26T09:48:17.026Z,51520.00
2019-02-26T09:49:16.602Z,51040.00
2019-02-26T09:50:17.715Z,52064.00
2019-02-26T09:51:16.788Z,51424.00
2019-02-26T09:52:18.407Z,50336.00
2019-02-26T09:53:16.558Z,50208.00
2019-02-26T09:54:17.677Z,45088.00
2019-02-26T09:55:16.538Z,52032.00
2019-02-26T09:56:16.535Z,52672.00
2019-02-26T09:57:18.088Z,53728.00
2019-02-26T09:58:20.053Z,46464.00
2019-02-26T09:59:16.496Z,40768.00
2019-02-26T10:00:16.966Z,50592.00
2019-02-26T10:01:18.032Z,54240.00
2019-02-26T10:02:17.277Z,49664.00
2019-02-26T10:03:16.455Z,50496.00
2019-02-26T10:04:17.375Z,56864.00
2019-02-26T10:05:18.240Z,52608.00
2019-02-26T10:06:18.596Z,56736.00
2019-02-26T10:07:16.409Z,57952.00
2019-02-26T10:08:17.354Z,57088.00
2019-02-26T10:09:18.176Z,60096.00
2019-02-26T10:10:16.373Z,61248.00
2019-02-26T10:11:18.333Z,60832.00
2019-02-26T10:12:16.369Z,59424.00
2019-02-26T10:13:18.182Z,59872.00
2019-02-26T10:14:16.345Z,61152.00
2019-02-26T10:15:16.318Z,58912.00
2019-02-26T10:16:16.318Z,57120.00
2019-02-26T10:17:17.191Z,56608.00
2019-02-26T10:18:16.302Z,58688.00
2019-02-26T10:19:17.283Z,57312.00
2019-02-26T10:20:17.761Z,57824.00
2019-02-26T10:21:18.446Z,59552.00
2019-02-26T10:22:16.244Z,56672.00
2019-02-26T10:23:16.231Z,57856.00
2019-02-26T10:24:18.777Z,58816.00
2019-02-26T10:25:17.241Z,56640.00
2019-02-26T10:26:16.206Z,53952.00
2019-02-26T10:27:16.460Z,57216.00
2019-02-26T10:28:17.107Z,54752.00
2019-02-26T10:29:16.168Z,62272.00
2019-02-26T10:30:16.301Z,60704.00
2019-02-26T10:31:16.157Z,59936.00
2019-02-26T10:32:16.132Z,60256.00
2019-02-26T10:33:18.219Z,62272.00
2019-02-26T10:34:18.245Z,64928.00
2019-02-26T10:35:18.511Z,64032.00
2019-02-26T10:36:18.166Z,59904.00
2019-02-26T10:37:16.081Z,58080.00
2019-02-26T10:38:16.078Z,58816.00
2019-02-26T10:39:18.119Z,60864.00
2019-02-26T10:40:17.167Z,60672.00
2019-02-26T10:41:16.042Z,60896.00
2019-02-26T10:42:18.071Z,63744.00
2019-02-26T10:43:16.020Z,62368.00
2019-02-26T10:44:16.008Z,62144.00
2019-02-26T10:45:16.001Z,62528.00
2019-02-26T10:46:15.979Z,63744.00
2019-02-26T10:47:15.969Z,64576.00
2019-02-26T10:48:18.931Z,64736.00
2019-02-26T10:49:15.963Z,66368.00
2019-02-26T10:50:18.473Z,67936.00
2019-02-26T10:51:17.134Z,64576.00
2019-02-26T10:52:16.885Z,59040.00
2019-02-26T10:53:19.355Z,59264.00
2019-02-26T10:54:17.986Z,64384.00
2019-02-26T10:55:17.846Z,67680.00
2019-02-26T10:56:15.873Z,69472.00
2019-02-26T10:57:15.873Z,70848.00
2019-02-26T10:58:15.863Z,70944.00
2019-02-26T10:59:18.866Z,69440.00
2019-02-26T11:00:15.845Z,67808.00
2019-02-26T11:01:17.766Z,67616.00
2019-02-26T11:02:17.824Z,67232.00
2019-02-26T11:03:17.296Z,68448.00
2019-02-26T11:04:15.785Z,69248.00
2019-02-26T11:05:19.742Z,66048.00
2019-02-26T11:06:17.368Z,63104.00
2019-02-26T11:07:15.760Z,64352.00
2019-02-26T11:08:15.759Z,66592.00
2019-02-26T11:09:19.260Z,66688.00
2019-02-26T11:10:18.102Z,64064.00
2019-02-26T11:11:18.197Z,60544.00
2019-02-26T11:12:15.724Z,62944.00
2019-02-26T11:13:17.666Z,65728.00
2019-02-26T11:14:17.388Z,66464.00
2019-02-26T11:15:15.666Z,67968.00
2019-02-26T11:16:22.634Z,68480.00
2019-02-26T11:17:17.974Z,68960.00
2019-02-26T11:18:18.023Z,67712.00
2019-02-26T11:19:15.629Z,66816.00
2019-02-26T11:20:15.613Z,66624.00
2019-02-26T11:21:15.600Z,67584.00
2019-02-26T11:22:18.110Z,68384.00
2019-02-26T11:23:16.251Z,68192.00
2019-02-26T11:24:15.571Z,68256.00
2019-02-26T11:25:17.934Z,68064.00
2019-02-26T11:26:18.068Z,65536.00
2019-02-26T11:27:17.140Z,62272.00
2019-02-26T11:28:15.523Z,63392.00
2019-02-26T11:29:15.533Z,64352.00
2019-02-26T11:30:17.605Z,64320.00
2019-02-26T11:31:16.640Z,65568.00
2019-02-26T11:32:15.667Z,68736.00
2019-02-26T11:33:15.642Z,71360.00
2019-02-26T11:34:15.456Z,69504.00
2019-02-26T11:35:17.656Z,65920.00
2019-02-26T11:36:15.786Z,65504.00
2019-02-26T11:37:15.431Z,64032.00
2019-02-26T11:38:17.072Z,61632.00
2019-02-26T11:39:16.562Z,63680.00
2019-02-26T11:40:17.330Z,66720.00
2019-02-26T11:41:15.450Z,70048.00
2019-02-26T11:42:16.475Z,71648.00
2019-02-26T11:43:19.401Z,71776.00
2019-02-26T11:44:19.966Z,72224.00
2019-02-26T11:45:17.514Z,65440.00
2019-02-26T11:46:15.339Z,69216.00
2019-02-26T11:47:16.635Z,71200.00
2019-02-26T11:48:17.442Z,69504.00
2019-02-26T11:49:16.926Z,70304.00
2019-02-26T11:50:15.304Z,71264.00
2019-02-26T11:51:17.710Z,70016.00
2019-02-26T11:52:15.305Z,70496.00
2019-02-26T11:53:15.265Z,70592.00
2019-02-26T11:54:17.557Z,65824.00
2019-02-26T11:55:15.250Z,67264.00
2019-02-26T11:56:15.851Z,68992.00
2019-02-26T11:57:15.810Z,68800.00
2019-02-26T11:58:15.977Z,69120.00
2019-02-26T11:59:16.883Z,70272.00
2019-02-26T12:00:24.123Z,68384.00
2019-02-26T12:01:16.190Z,67072.00
2019-02-26T12:02:24.955Z,66112.00
2019-02-26T12:03:16.157Z,67168.00
2019-02-26T12:04:17.084Z,66656.00
2019-02-26T12:05:15.225Z,65952.00
2019-02-26T12:06:15.117Z,67616.00
2019-02-26T12:07:15.113Z,66560.00
2019-02-26T12:08:17.416Z,65824.00
2019-02-26T12:09:16.178Z,66688.00
2019-02-26T12:10:15.123Z,67456.00
2019-02-26T12:11:17.792Z,68192.00
2019-02-26T12:12:16.045Z,69536.00
2019-02-26T12:13:17.208Z,62784.00
2019-02-26T12:14:18.429Z,55808.00
2019-02-26T12:15:15.270Z,55424.00
2019-02-26T12:16:15.007Z,63872.00
2019-02-26T12:17:15.019Z,53472.00
2019-02-26T12:18:17.400Z,50016.00
2019-02-26T12:19:14.985Z,50784.00
2019-02-26T12:20:17.193Z,54528.00
2019-02-26T12:21:14.953Z,50848.00
2019-02-26T12:22:14.961Z,46144.00
2019-02-26T12:23:16.167Z,53600.00
2019-02-26T12:24:14.954Z,56544.00
2019-02-26T12:25:14.921Z,53472.00
2019-02-26T12:26:18.612Z,49376.00
2019-02-26T12:27:18.178Z,54208.00
2019-02-26T12:28:15.898Z,53984.00
2019-02-26T12:29:16.212Z,54304.00
2019-02-26T12:30:15.810Z,54496.00
2019-02-26T12:31:14.873Z,50336.00